sensor_id;sensor_type;location;lat;lon;timestamp;P1;durP1;ratioP1;P2;durP2;ratioP2
3297;SDS011;1661;53.572;10.174;2022-11-20T00:01:15;7.32;;;6.30;;
3297;SDS011;1661;53.572;10.174;2022-11-20T00:03:43;8.55;;;6.22;;
3297;SDS011;1661;53.572;10.174;2022-11-20T00:06:12;7.88;;;5.90;;
3297;SDS011;1661;53.572;10.174;2022-11-20T00:08:40;6.47;;;5.77;;
3297;SDS011;1661;53.572;10.174;2022-11-20T00:11:07;7.63;;;6.07;;
3297;SDS011;1661;53.572;10.174;2022-11-20T00:13:37;7.60;;;6.03;;
3297;SDS011;1661;53.572;10.174;2022-11-20T00:16:05;11.73;;;5.60;;
3297;SDS011;1661;53.572;10.174;2022-11-20T00:18:33;10.43;;;6.20;;
3297;SDS011;1661;53.572;10.174;2022-11-20T00:21:01;5.57;;;4.93;;
3297;SDS011;1661;53.572;10.174;2022-11-20T00:23:28;6.70;;;5.27;;
3297;SDS011;1661;53.572;10.174;2022-11-20T00:25:55;7.53;;;5.68;;
3297;SDS011;1661;53.572;10.174;2022-11-20T00:28:22;10.52;;;6.80;;
3297;SDS011;1661;53.572;10.174;2022-11-20T00:30:50;7.35;;;6.65;;
3297;SDS011;1661;53.572;10.174;2022-11-20T00:33:18;7.72;;;5.95;;
3297;SDS011;1661;53.572;10.174;2022-11-20T00:35:44;5.30;;;4.80;;
3297;SDS011;1661;53.572;10.174;2022-11-20T00:38:11;8.37;;;6.43;;
3297;SDS011;1661;53.572;10.174;2022-11-20T00:40:38;7.30;;;5.33;;
3297;SDS011;1661;53.572;10.174;2022-11-20T00:43:05;10.37;;;7.30;;
3297;SDS011;1661;53.572;10.174;2022-11-20T00:45:32;8.17;;;5.60;;
3297;SDS011;1661;53.572;10.174;2022-11-20T00:48:00;8.95;;;6.70;;
3297;SDS011;1661;53.572;10.174;2022-11-20T00:50:27;8.47;;;6.53;;
3297;SDS011;1661;53.572;10.174;2022-11-20T00:52:53;6.90;;;6.30;;
3297;SDS011;1661;53.572;10.174;2022-11-20T00:55:20;11.57;;;6.10;;
3297;SDS011;1661;53.572;10.174;2022-11-20T00:57:47;12.32;;;7.05;;
3297;SDS011;1661;53.572;10.174;2022-11-20T01:00:14;15.83;;;6.73;;
3297;SDS011;1661;53.572;10.174;2022-11-20T01:02:41;5.82;;;5.10;;
3297;SDS011;1661;53.572;10.174;2022-11-20T01:05:09;5.70;;;5.20;;
3297;SDS011;1661;53.572;10.174;2022-11-20T01:07:36;12.05;;;6.68;;
3297;SDS011;1661;53.572;10.174;2022-11-20T01:10:03;6.13;;;5.23;;
3297;SDS011;1661;53.572;10.174;2022-11-20T01:12:32;6.70;;;5.40;;
3297;SDS011;1661;53.572;10.174;2022-11-20T01:14:59;6.30;;;5.47;;
3297;SDS011;1661;53.572;10.174;2022-11-20T01:17:26;9.55;;;5.60;;
3297;SDS011;1661;53.572;10.174;2022-11-20T01:19:53;5.80;;;5.30;;
3297;SDS011;1661;53.572;10.174;2022-11-20T01:22:21;6.03;;;5.33;;
3297;SDS011;1661;53.572;10.174;2022-11-20T01:24:48;7.93;;;7.23;;
3297;SDS011;1661;53.572;10.174;2022-11-20T01:27:15;7.70;;;6.00;;
3297;SDS011;1661;53.572;10.174;2022-11-20T01:29:42;10.87;;;7.00;;
3297;SDS011;1661;53.572;10.174;2022-11-20T01:32:09;6.73;;;6.03;;
3297;SDS011;1661;53.572;10.174;2022-11-20T01:34:36;6.13;;;5.10;;
3297;SDS011;1661;53.572;10.174;2022-11-20T01:37:02;9.82;;;6.88;;
3297;SDS011;1661;53.572;10.174;2022-11-20T01:39:31;10.43;;;6.90;;
3297;SDS011;1661;53.572;10.174;2022-11-20T01:41:57;11.70;;;5.63;;
3297;SDS011;1661;53.572;10.174;2022-11-20T01:44:47;8.97;;;5.87;;
3297;SDS011;1661;53.572;10.174;2022-11-20T01:47:17;9.67;;;6.70;;
3297;SDS011;1661;53.572;10.174;2022-11-20T01:49:48;14.10;;;7.30;;
3297;SDS011;1661;53.572;10.174;2022-11-20T01:52:19;13.10;;;6.00;;
3297;SDS011;1661;53.572;10.174;2022-11-20T01:54:50;7.63;;;5.70;;
3297;SDS011;1661;53.572;10.174;2022-11-20T01:57:21;7.93;;;5.00;;
3297;SDS011;1661;53.572;10.174;2022-11-20T01:59:52;10.37;;;6.93;;
3297;SDS011;1661;53.572;10.174;2022-11-20T02:02:22;9.30;;;5.93;;
3297;SDS011;1661;53.572;10.174;2022-11-20T02:04:49;6.33;;;5.73;;
3297;SDS011;1661;53.572;10.174;2022-11-20T02:07:20;9.73;;;6.43;;
3297;SDS011;1661;53.572;10.174;2022-11-20T02:09:50;7.20;;;6.60;;
3297;SDS011;1661;53.572;10.174;2022-11-20T02:12:17;8.00;;;6.43;;
3297;SDS011;1661;53.572;10.174;2022-11-20T02:14:58;6.97;;;6.27;;
3297;SDS011;1661;53.572;10.174;2022-11-20T02:17:25;5.40;;;4.90;;
3297;SDS011;1661;53.572;10.174;2022-11-20T02:19:52;6.40;;;5.90;;
3297;SDS011;1661;53.572;10.174;2022-11-20T02:22:21;7.65;;;5.95;;
3297;SDS011;1661;53.572;10.174;2022-11-20T02:24:55;6.67;;;5.40;;
3297;SDS011;1661;53.572;10.174;2022-11-20T02:27:24;5.17;;;4.67;;
3297;SDS011;1661;53.572;10.174;2022-11-20T02:29:53;5.80;;;5.20;;
3297;SDS011;1661;53.572;10.174;2022-11-20T02:32:24;6.67;;;5.10;;
3297;SDS011;1661;53.572;10.174;2022-11-20T02:34:53;8.60;;;6.43;;
3297;SDS011;1661;53.572;10.174;2022-11-20T02:37:20;8.77;;;4.90;;
3297;SDS011;1661;53.572;10.174;2022-11-20T02:39:47;8.10;;;5.40;;
3297;SDS011;1661;53.572;10.174;2022-11-20T02:42:17;8.63;;;6.25;;
3297;SDS011;1661;53.572;10.174;2022-11-20T02:44:44;7.40;;;6.47;;
3297;SDS011;1661;53.572;10.174;2022-11-20T02:47:11;8.98;;;6.43;;
3297;SDS011;1661;53.572;10.174;2022-11-20T02:49:38;10.25;;;7.10;;
3297;SDS011;1661;53.572;10.174;2022-11-20T02:52:05;7.90;;;7.03;;
3297;SDS011;1661;53.572;10.174;2022-11-20T02:54:32;5.40;;;4.90;;
3297;SDS011;1661;53.572;10.174;2022-11-20T02:56:58;9.00;;;5.50;;
3297;SDS011;1661;53.572;10.174;2022-11-20T02:59:27;6.03;;;5.37;;
3297;SDS011;1661;53.572;10.174;2022-11-20T03:01:53;10.98;;;5.88;;
3297;SDS011;1661;53.572;10.174;2022-11-20T03:04:20;7.80;;;5.83;;
3297;SDS011;1661;53.572;10.174;2022-11-20T03:06:47;7.47;;;5.13;;
3297;SDS011;1661;53.572;10.174;2022-11-20T03:09:14;7.30;;;5.47;;
3297;SDS011;1661;53.572;10.174;2022-11-20T03:11:41;9.80;;;5.80;;
3297;SDS011;1661;53.572;10.174;2022-11-20T03:14:08;5.20;;;4.20;;
3297;SDS011;1661;53.572;10.174;2022-11-20T03:16:36;8.23;;;6.50;;
3297;SDS011;1661;53.572;10.174;2022-11-20T03:19:03;4.70;;;4.30;;
3297;SDS011;1661;53.572;10.174;2022-11-20T03:21:29;8.23;;;5.43;;
3297;SDS011;1661;53.572;10.174;2022-11-20T03:23:56;8.43;;;7.03;;
3297;SDS011;1661;53.572;10.174;2022-11-20T03:26:24;9.20;;;6.30;;
3297;SDS011;1661;53.572;10.174;2022-11-20T03:28:52;8.50;;;5.70;;
3297;SDS011;1661;53.572;10.174;2022-11-20T03:31:21;5.55;;;5.05;;
3297;SDS011;1661;53.572;10.174;2022-11-20T03:33:50;6.13;;;5.53;;
3297;SDS011;1661;53.572;10.174;2022-11-20T03:36:18;4.93;;;4.50;;
3297;SDS011;1661;53.572;10.174;2022-11-20T03:38:46;6.30;;;5.10;;
3297;SDS011;1661;53.572;10.174;2022-11-20T03:41:14;5.50;;;4.87;;
3297;SDS011;1661;53.572;10.174;2022-11-20T03:43:46;5.50;;;4.73;;
3297;SDS011;1661;53.572;10.174;2022-11-20T03:46:15;11.50;;;5.60;;
3297;SDS011;1661;53.572;10.174;2022-11-20T03:48:42;9.02;;;5.63;;
3297;SDS011;1661;53.572;10.174;2022-11-20T03:51:12;6.03;;;5.47;;
3297;SDS011;1661;53.572;10.174;2022-11-20T03:53:40;6.00;;;5.22;;
3297;SDS011;1661;53.572;10.174;2022-11-20T03:56:09;4.43;;;4.03;;
3297;SDS011;1661;53.572;10.174;2022-11-20T03:58:37;5.20;;;4.70;;
3297;SDS011;1661;53.572;10.174;2022-11-20T04:01:05;5.00;;;4.60;;
3297;SDS011;1661;53.572;10.174;2022-11-20T04:03:33;7.33;;;6.63;;
3297;SDS011;1661;53.572;10.174;2022-11-20T04:06:01;8.30;;;6.20;;
3297;SDS011;1661;53.572;10.174;2022-11-20T04:08:31;7.25;;;5.95;;
3297;SDS011;1661;53.572;10.174;2022-11-20T04:11:07;9.52;;;6.80;;
3297;SDS011;1661;53.572;10.174;2022-11-20T04:13:35;6.07;;;5.50;;
3297;SDS011;1661;53.572;10.174;2022-11-20T04:16:02;6.30;;;5.60;;
3297;SDS011;1661;53.572;10.174;2022-11-20T04:18:29;6.77;;;6.13;;
3297;SDS011;1661;53.572;10.174;2022-11-20T04:20:56;5.80;;;5.20;;
3297;SDS011;1661;53.572;10.174;2022-11-20T04:23:23;6.90;;;5.43;;
3297;SDS011;1661;53.572;10.174;2022-11-20T04:25:51;5.78;;;5.05;;
3297;SDS011;1661;53.572;10.174;2022-11-20T04:28:18;9.37;;;6.37;;
3297;SDS011;1661;53.572;10.174;2022-11-20T04:30:45;5.73;;;4.93;;
3297;SDS011;1661;53.572;10.174;2022-11-20T04:33:12;7.23;;;5.67;;
3297;SDS011;1661;53.572;10.174;2022-11-20T04:35:39;12.47;;;7.37;;
3297;SDS011;1661;53.572;10.174;2022-11-20T04:38:06;8.73;;;4.80;;
3297;SDS011;1661;53.572;10.174;2022-11-20T04:40:32;5.37;;;4.83;;
3297;SDS011;1661;53.572;10.174;2022-11-20T04:43:01;6.50;;;5.90;;
3297;SDS011;1661;53.572;10.174;2022-11-20T04:45:27;5.20;;;4.70;;
3297;SDS011;1661;53.572;10.174;2022-11-20T04:47:54;5.53;;;5.03;;
3297;SDS011;1661;53.572;10.174;2022-11-20T04:50:21;7.30;;;4.63;;
3297;SDS011;1661;53.572;10.174;2022-11-20T04:52:48;7.43;;;5.27;;
3297;SDS011;1661;53.572;10.174;2022-11-20T04:55:14;7.50;;;4.53;;
3297;SDS011;1661;53.572;10.174;2022-11-20T04:57:41;6.17;;;4.90;;
3297;SDS011;1661;53.572;10.174;2022-11-20T05:00:10;4.80;;;4.40;;
3297;SDS011;1661;53.572;10.174;2022-11-20T05:02:38;5.07;;;4.20;;
3297;SDS011;1661;53.572;10.174;2022-11-20T05:05:05;5.35;;;4.95;;
3297;SDS011;1661;53.572;10.174;2022-11-20T05:07:32;3.80;;;3.50;;
3297;SDS011;1661;53.572;10.174;2022-11-20T05:09:59;7.20;;;5.13;;
3297;SDS011;1661;53.572;10.174;2022-11-20T05:12:26;5.67;;;5.17;;
3297;SDS011;1661;53.572;10.174;2022-11-20T05:14:53;8.17;;;6.00;;
3297;SDS011;1661;53.572;10.174;2022-11-20T05:17:22;5.30;;;4.80;;
3297;SDS011;1661;53.572;10.174;2022-11-20T05:19:48;6.57;;;4.50;;
3297;SDS011;1661;53.572;10.174;2022-11-20T05:22:15;5.40;;;4.63;;
3297;SDS011;1661;53.572;10.174;2022-11-20T05:24:42;5.73;;;5.23;;
3297;SDS011;1661;53.572;10.174;2022-11-20T05:27:09;9.80;;;4.87;;
3297;SDS011;1661;53.572;10.174;2022-11-20T05:29:36;7.80;;;5.50;;
3297;SDS011;1661;53.572;10.174;2022-11-20T05:32:02;5.97;;;4.90;;
3297;SDS011;1661;53.572;10.174;2022-11-20T05:34:32;5.17;;;4.77;;
3297;SDS011;1661;53.572;10.174;2022-11-20T05:36:59;5.67;;;5.17;;
3297;SDS011;1661;53.572;10.174;2022-11-20T05:39:26;6.30;;;5.80;;
3297;SDS011;1661;53.572;10.174;2022-11-20T05:41:52;5.77;;;5.27;;
3297;SDS011;1661;53.572;10.174;2022-11-20T05:44:33;6.00;;;5.33;;
3297;SDS011;1661;53.572;10.174;2022-11-20T05:47:00;6.13;;;5.33;;
3297;SDS011;1661;53.572;10.174;2022-11-20T05:49:27;5.22;;;4.65;;
3297;SDS011;1661;53.572;10.174;2022-11-20T05:51:55;7.30;;;4.10;;
3297;SDS011;1661;53.572;10.174;2022-11-20T05:54:22;4.63;;;4.23;;
3297;SDS011;1661;53.572;10.174;2022-11-20T05:56:48;6.25;;;5.65;;
3297;SDS011;1661;53.572;10.174;2022-11-20T05:59:15;9.50;;;5.50;;
3297;SDS011;1661;53.572;10.174;2022-11-20T06:01:43;5.80;;;5.20;;
3297;SDS011;1661;53.572;10.174;2022-11-20T06:04:10;5.37;;;4.90;;
3297;SDS011;1661;53.572;10.174;2022-11-20T06:06:37;9.52;;;5.95;;
3297;SDS011;1661;53.572;10.174;2022-11-20T06:09:05;6.63;;;5.37;;
3297;SDS011;1661;53.572;10.174;2022-11-20T06:11:32;6.80;;;6.20;;
3297;SDS011;1661;53.572;10.174;2022-11-20T06:13:58;6.37;;;4.83;;
3297;SDS011;1661;53.572;10.174;2022-11-20T06:16:25;9.60;;;6.17;;
3297;SDS011;1661;53.572;10.174;2022-11-20T06:18:52;9.33;;;6.93;;
3297;SDS011;1661;53.572;10.174;2022-11-20T06:21:20;9.23;;;7.10;;
3297;SDS011;1661;53.572;10.174;2022-11-20T06:23:48;8.53;;;7.10;;
3297;SDS011;1661;53.572;10.174;2022-11-20T06:26:18;5.97;;;5.47;;
3297;SDS011;1661;53.572;10.174;2022-11-20T06:28:46;5.87;;;5.40;;
3297;SDS011;1661;53.572;10.174;2022-11-20T06:31:14;8.32;;;6.32;;
3297;SDS011;1661;53.572;10.174;2022-11-20T06:33:42;6.77;;;5.87;;
3297;SDS011;1661;53.572;10.174;2022-11-20T06:36:09;6.68;;;6.07;;
3297;SDS011;1661;53.572;10.174;2022-11-20T06:38:37;5.87;;;5.27;;
3297;SDS011;1661;53.572;10.174;2022-11-20T06:41:04;10.60;;;5.83;;
3297;SDS011;1661;53.572;10.174;2022-11-20T06:43:33;6.67;;;6.07;;
3297;SDS011;1661;53.572;10.174;2022-11-20T06:46:00;6.85;;;6.22;;
3297;SDS011;1661;53.572;10.174;2022-11-20T06:48:27;5.97;;;5.47;;
3297;SDS011;1661;53.572;10.174;2022-11-20T06:50:55;7.25;;;6.65;;
3297;SDS011;1661;53.572;10.174;2022-11-20T06:53:23;8.97;;;8.10;;
3297;SDS011;1661;53.572;10.174;2022-11-20T06:55:51;8.57;;;7.78;;
3297;SDS011;1661;53.572;10.174;2022-11-20T06:58:18;9.80;;;8.43;;
3297;SDS011;1661;53.572;10.174;2022-11-20T07:00:47;8.97;;;8.07;;
3297;SDS011;1661;53.572;10.174;2022-11-20T07:03:13;14.90;;;8.30;;
3297;SDS011;1661;53.572;10.174;2022-11-20T07:05:40;8.50;;;7.10;;
3297;SDS011;1661;53.572;10.174;2022-11-20T07:08:07;13.02;;;9.70;;
3297;SDS011;1661;53.572;10.174;2022-11-20T07:10:34;10.67;;;8.43;;
3297;SDS011;1661;53.572;10.174;2022-11-20T07:13:02;9.90;;;8.63;;
3297;SDS011;1661;53.572;10.174;2022-11-20T07:15:28;8.33;;;7.50;;
3297;SDS011;1661;53.572;10.174;2022-11-20T07:17:59;10.05;;;8.70;;
3297;SDS011;1661;53.572;10.174;2022-11-20T07:20:26;7.83;;;6.90;;
3297;SDS011;1661;53.572;10.174;2022-11-20T07:22:53;15.77;;;8.77;;
3297;SDS011;1661;53.572;10.174;2022-11-20T07:25:21;8.55;;;7.65;;
3297;SDS011;1661;53.572;10.174;2022-11-20T07:27:48;9.77;;;8.23;;
3297;SDS011;1661;53.572;10.174;2022-11-20T07:30:15;7.63;;;6.32;;
3297;SDS011;1661;53.572;10.174;2022-11-20T07:32:42;14.00;;;8.20;;
3297;SDS011;1661;53.572;10.174;2022-11-20T07:35:10;9.60;;;7.10;;
3297;SDS011;1661;53.572;10.174;2022-11-20T07:37:37;6.80;;;5.57;;
3297;SDS011;1661;53.572;10.174;2022-11-20T07:40:04;7.37;;;6.70;;
3297;SDS011;1661;53.572;10.174;2022-11-20T07:42:31;11.13;;;6.35;;
3297;SDS011;1661;53.572;10.174;2022-11-20T07:44:58;6.47;;;5.88;;
3297;SDS011;1661;53.572;10.174;2022-11-20T07:47:25;9.45;;;8.45;;
3297;SDS011;1661;53.572;10.174;2022-11-20T07:49:52;8.70;;;7.53;;
3297;SDS011;1661;53.572;10.174;2022-11-20T07:52:20;9.32;;;6.70;;
3297;SDS011;1661;53.572;10.174;2022-11-20T07:54:47;8.38;;;5.95;;
3297;SDS011;1661;53.572;10.174;2022-11-20T07:57:13;6.95;;;6.35;;
3297;SDS011;1661;53.572;10.174;2022-11-20T07:59:40;8.52;;;7.68;;
3297;SDS011;1661;53.572;10.174;2022-11-20T08:02:09;7.82;;;7.03;;
3297;SDS011;1661;53.572;10.174;2022-11-20T08:04:36;6.72;;;6.22;;
3297;SDS011;1661;53.572;10.174;2022-11-20T08:07:03;6.15;;;5.55;;
3297;SDS011;1661;53.572;10.174;2022-11-20T08:09:31;7.95;;;6.38;;
3297;SDS011;1661;53.572;10.174;2022-11-20T08:11:58;10.77;;;6.60;;
3297;SDS011;1661;53.572;10.174;2022-11-20T08:14:42;8.15;;;7.40;;
3297;SDS011;1661;53.572;10.174;2022-11-20T08:17:09;8.30;;;7.32;;
3297;SDS011;1661;53.572;10.174;2022-11-20T08:19:36;7.75;;;6.95;;
3297;SDS011;1661;53.572;10.174;2022-11-20T08:22:03;9.95;;;9.05;;
3297;SDS011;1661;53.572;10.174;2022-11-20T08:24:30;6.77;;;6.10;;
3297;SDS011;1661;53.572;10.174;2022-11-20T08:26:58;7.13;;;5.18;;
3297;SDS011;1661;53.572;10.174;2022-11-20T08:29:25;8.98;;;8.07;;
3297;SDS011;1661;53.572;10.174;2022-11-20T08:31:52;7.60;;;6.90;;
3297;SDS011;1661;53.572;10.174;2022-11-20T08:34:19;5.73;;;5.20;;
3297;SDS011;1661;53.572;10.174;2022-11-20T08:36:46;10.87;;;6.57;;
3297;SDS011;1661;53.572;10.174;2022-11-20T08:39:13;6.40;;;5.90;;
3297;SDS011;1661;53.572;10.174;2022-11-20T08:41:41;7.77;;;6.40;;
3297;SDS011;1661;53.572;10.174;2022-11-20T08:44:08;8.95;;;6.78;;
3297;SDS011;1661;53.572;10.174;2022-11-20T08:46:36;8.93;;;8.07;;
3297;SDS011;1661;53.572;10.174;2022-11-20T08:49:06;8.03;;;7.23;;
3297;SDS011;1661;53.572;10.174;2022-11-20T08:51:34;6.13;;;5.40;;
3297;SDS011;1661;53.572;10.174;2022-11-20T08:54:01;6.37;;;4.80;;
3297;SDS011;1661;53.572;10.174;2022-11-20T08:56:29;5.55;;;4.68;;
3297;SDS011;1661;53.572;10.174;2022-11-20T08:58:57;7.68;;;6.20;;
3297;SDS011;1661;53.572;10.174;2022-11-20T09:01:25;6.32;;;5.40;;
3297;SDS011;1661;53.572;10.174;2022-11-20T09:03:55;6.63;;;6.13;;
3297;SDS011;1661;53.572;10.174;2022-11-20T09:06:23;6.30;;;5.80;;
3297;SDS011;1661;53.572;10.174;2022-11-20T09:08:51;5.20;;;4.68;;
3297;SDS011;1661;53.572;10.174;2022-11-20T09:11:18;8.05;;;7.35;;
3297;SDS011;1661;53.572;10.174;2022-11-20T09:13:45;7.73;;;5.50;;
3297;SDS011;1661;53.572;10.174;2022-11-20T09:16:13;6.10;;;5.33;;
3297;SDS011;1661;53.572;10.174;2022-11-20T09:18:40;5.10;;;4.73;;
3297;SDS011;1661;53.572;10.174;2022-11-20T09:21:08;6.60;;;6.00;;
3297;SDS011;1661;53.572;10.174;2022-11-20T09:23:37;6.60;;;5.73;;
3297;SDS011;1661;53.572;10.174;2022-11-20T09:26:08;7.63;;;6.93;;
3297;SDS011;1661;53.572;10.174;2022-11-20T09:28:36;7.17;;;5.00;;
3297;SDS011;1661;53.572;10.174;2022-11-20T09:31:04;5.83;;;5.33;;
3297;SDS011;1661;53.572;10.174;2022-11-20T09:33:33;6.40;;;5.90;;
3297;SDS011;1661;53.572;10.174;2022-11-20T09:36:00;6.70;;;6.10;;
3297;SDS011;1661;53.572;10.174;2022-11-20T09:38:27;6.87;;;6.27;;
3297;SDS011;1661;53.572;10.174;2022-11-20T09:40:56;5.33;;;4.90;;
3297;SDS011;1661;53.572;10.174;2022-11-20T09:43:27;6.00;;;5.23;;
3297;SDS011;1661;53.572;10.174;2022-11-20T09:46:05;4.87;;;4.47;;
3297;SDS011;1661;53.572;10.174;2022-11-20T09:48:45;5.83;;;5.33;;
3297;SDS011;1661;53.572;10.174;2022-11-20T09:51:30;5.53;;;5.13;;
3297;SDS011;1661;53.572;10.174;2022-11-20T09:54:10;5.43;;;4.93;;
3297;SDS011;1661;53.572;10.174;2022-11-20T09:56:43;5.90;;;5.40;;
3297;SDS011;1661;53.572;10.174;2022-11-20T09:59:19;6.13;;;5.10;;
3297;SDS011;1661;53.572;10.174;2022-11-20T10:01:54;6.10;;;4.90;;
3297;SDS011;1661;53.572;10.174;2022-11-20T10:04:25;6.80;;;6.13;;
3297;SDS011;1661;53.572;10.174;2022-11-20T10:06:53;6.47;;;5.97;;
3297;SDS011;1661;53.572;10.174;2022-11-20T10:09:30;5.90;;;5.40;;
3297;SDS011;1661;53.572;10.174;2022-11-20T10:12:04;5.57;;;5.20;;
3297;SDS011;1661;53.572;10.174;2022-11-20T10:14:39;9.30;;;6.00;;
3297;SDS011;1661;53.572;10.174;2022-11-20T10:17:17;4.90;;;4.50;;
3297;SDS011;1661;53.572;10.174;2022-11-20T10:19:56;6.23;;;5.73;;
3297;SDS011;1661;53.572;10.174;2022-11-20T10:22:40;5.03;;;4.63;;
3297;SDS011;1661;53.572;10.174;2022-11-20T10:25:25;5.53;;;5.10;;
3297;SDS011;1661;53.572;10.174;2022-11-20T10:30:50;5.10;;;4.67;;
3297;SDS011;1661;53.572;10.174;2022-11-20T10:33:23;6.07;;;5.60;;
3297;SDS011;1661;53.572;10.174;2022-11-20T10:35:58;9.73;;;7.70;;
3297;SDS011;1661;53.572;10.174;2022-11-20T10:38:33;7.60;;;6.93;;
3297;SDS011;1661;53.572;10.174;2022-11-20T10:41:03;6.57;;;5.97;;
3297;SDS011;1661;53.572;10.174;2022-11-20T10:43:51;6.40;;;5.50;;
3297;SDS011;1661;53.572;10.174;2022-11-20T10:46:22;7.00;;;6.13;;
3297;SDS011;1661;53.572;10.174;2022-11-20T10:48:51;6.18;;;5.68;;
3297;SDS011;1661;53.572;10.174;2022-11-20T10:51:25;6.20;;;5.70;;
3297;SDS011;1661;53.572;10.174;2022-11-20T10:54:07;6.50;;;6.00;;
3297;SDS011;1661;53.572;10.174;2022-11-20T10:56:45;5.82;;;5.25;;
3297;SDS011;1661;53.572;10.174;2022-11-20T10:59:31;4.30;;;3.90;;
3297;SDS011;1661;53.572;10.174;2022-11-20T11:02:14;4.93;;;4.53;;
3297;SDS011;1661;53.572;10.174;2022-11-20T11:04:43;4.78;;;4.38;;
3297;SDS011;1661;53.572;10.174;2022-11-20T11:07:15;5.17;;;4.67;;
3297;SDS011;1661;53.572;10.174;2022-11-20T11:09:46;5.90;;;5.30;;
3297;SDS011;1661;53.572;10.174;2022-11-20T11:12:15;5.20;;;4.60;;
3297;SDS011;1661;53.572;10.174;2022-11-20T11:14:43;10.23;;;5.47;;
3297;SDS011;1661;53.572;10.174;2022-11-20T11:17:23;5.50;;;5.07;;
3297;SDS011;1661;53.572;10.174;2022-11-20T11:19:58;5.18;;;4.78;;
3297;SDS011;1661;53.572;10.174;2022-11-20T11:22:27;5.07;;;4.57;;
3297;SDS011;1661;53.572;10.174;2022-11-20T11:24:55;6.13;;;5.63;;
3297;SDS011;1661;53.572;10.174;2022-11-20T11:27:22;4.50;;;4.10;;
3297;SDS011;1661;53.572;10.174;2022-11-20T11:29:49;4.33;;;3.90;;
3297;SDS011;1661;53.572;10.174;2022-11-20T11:32:27;5.30;;;4.80;;
3297;SDS011;1661;53.572;10.174;2022-11-20T11:34:59;5.70;;;5.30;;
3297;SDS011;1661;53.572;10.174;2022-11-20T11:37:31;5.40;;;5.00;;
3297;SDS011;1661;53.572;10.174;2022-11-20T11:40:00;4.87;;;4.50;;
3297;SDS011;1661;53.572;10.174;2022-11-20T11:42:28;5.37;;;4.57;;
3297;SDS011;1661;53.572;10.174;2022-11-20T11:44:56;4.90;;;4.43;;
3297;SDS011;1661;53.572;10.174;2022-11-20T11:47:31;5.07;;;4.67;;
3297;SDS011;1661;53.572;10.174;2022-11-20T11:50:02;5.33;;;4.47;;
3297;SDS011;1661;53.572;10.174;2022-11-20T11:52:42;4.47;;;4.00;;
3297;SDS011;1661;53.572;10.174;2022-11-20T11:55:14;5.00;;;4.60;;
3297;SDS011;1661;53.572;10.174;2022-11-20T11:57:51;4.57;;;4.17;;
3297;SDS011;1661;53.572;10.174;2022-11-20T12:00:22;4.40;;;4.10;;
3297;SDS011;1661;53.572;10.174;2022-11-20T12:02:53;4.13;;;3.77;;
3297;SDS011;1661;53.572;10.174;2022-11-20T12:05:27;5.40;;;3.80;;
3297;SDS011;1661;53.572;10.174;2022-11-20T12:07:58;3.80;;;3.50;;
3297;SDS011;1661;53.572;10.174;2022-11-20T12:10:34;4.23;;;3.90;;
3297;SDS011;1661;53.572;10.174;2022-11-20T12:13:13;3.00;;;2.80;;
3297;SDS011;1661;53.572;10.174;2022-11-20T12:15:44;3.77;;;3.43;;
3297;SDS011;1661;53.572;10.174;2022-11-20T12:18:14;3.80;;;3.50;;
3297;SDS011;1661;53.572;10.174;2022-11-20T12:20:45;4.40;;;4.10;;
3297;SDS011;1661;53.572;10.174;2022-11-20T12:23:22;4.00;;;3.53;;
3297;SDS011;1661;53.572;10.174;2022-11-20T12:25:54;5.13;;;4.63;;
3297;SDS011;1661;53.572;10.174;2022-11-20T12:28:38;5.67;;;2.73;;
3297;SDS011;1661;53.572;10.174;2022-11-20T12:31:17;5.17;;;4.17;;
3297;SDS011;1661;53.572;10.174;2022-11-20T12:34:09;4.30;;;3.90;;
3297;SDS011;1661;53.572;10.174;2022-11-20T12:36:49;3.50;;;3.23;;
3297;SDS011;1661;53.572;10.174;2022-11-20T12:39:26;4.60;;;4.30;;
3297;SDS011;1661;53.572;10.174;2022-11-20T12:42:06;4.77;;;4.23;;
3297;SDS011;1661;53.572;10.174;2022-11-20T12:48:07;4.63;;;4.33;;
3297;SDS011;1661;53.572;10.174;2022-11-20T12:50:51;3.57;;;3.30;;
3297;SDS011;1661;53.572;10.174;2022-11-20T12:53:25;4.00;;;3.70;;
3297;SDS011;1661;53.572;10.174;2022-11-20T12:56:00;4.97;;;4.60;;
3297;SDS011;1661;53.572;10.174;2022-11-20T12:58:39;4.70;;;4.10;;
3297;SDS011;1661;53.572;10.174;2022-11-20T13:01:16;3.57;;;3.27;;
3297;SDS011;1661;53.572;10.174;2022-11-20T13:04:06;3.83;;;3.53;;
3297;SDS011;1661;53.572;10.174;2022-11-20T13:06:40;7.77;;;3.87;;
3297;SDS011;1661;53.572;10.174;2022-11-20T13:09:08;4.50;;;4.10;;
3297;SDS011;1661;53.572;10.174;2022-11-20T13:11:41;4.50;;;4.10;;
3297;SDS011;1661;53.572;10.174;2022-11-20T13:14:16;3.37;;;3.17;;
3297;SDS011;1661;53.572;10.174;2022-11-20T13:16:54;2.90;;;2.70;;
3297;SDS011;1661;53.572;10.174;2022-11-20T13:19:26;3.23;;;3.00;;
3297;SDS011;1661;53.572;10.174;2022-11-20T13:21:54;3.60;;;3.40;;
3297;SDS011;1661;53.572;10.174;2022-11-20T13:24:23;3.60;;;3.30;;
3297;SDS011;1661;53.572;10.174;2022-11-20T13:27:17;3.30;;;3.07;;
3297;SDS011;1661;53.572;10.174;2022-11-20T13:29:46;6.70;;;5.37;;
3297;SDS011;1661;53.572;10.174;2022-11-20T13:32:25;6.33;;;5.83;;
3297;SDS011;1661;53.572;10.174;2022-11-20T13:34:57;3.70;;;3.40;;
3297;SDS011;1661;53.572;10.174;2022-11-20T13:37:26;5.50;;;4.80;;
3297;SDS011;1661;53.572;10.174;2022-11-20T13:40:04;9.73;;;5.20;;
3297;SDS011;1661;53.572;10.174;2022-11-20T13:42:39;7.53;;;6.77;;
3297;SDS011;1661;53.572;10.174;2022-11-20T13:45:11;5.50;;;5.00;;
3297;SDS011;1661;53.572;10.174;2022-11-20T13:47:48;4.47;;;4.17;;
3297;SDS011;1661;53.572;10.174;2022-11-20T13:50:16;5.10;;;4.50;;
3297;SDS011;1661;53.572;10.174;2022-11-20T13:52:45;4.87;;;4.40;;
3297;SDS011;1661;53.572;10.174;2022-11-20T13:55:21;5.57;;;5.27;;
3297;SDS011;1661;53.572;10.174;2022-11-20T13:58:02;5.13;;;4.27;;
3297;SDS011;1661;53.572;10.174;2022-11-20T14:00:55;3.77;;;3.57;;
3297;SDS011;1661;53.572;10.174;2022-11-20T14:03:27;5.60;;;3.80;;
3297;SDS011;1661;53.572;10.174;2022-11-20T14:05:56;6.00;;;5.50;;
3297;SDS011;1661;53.572;10.174;2022-11-20T14:08:35;3.97;;;3.67;;
3297;SDS011;1661;53.572;10.174;2022-11-20T14:11:05;5.80;;;5.30;;
3297;SDS011;1661;53.572;10.174;2022-11-20T14:13:49;5.97;;;5.50;;
3297;SDS011;1661;53.572;10.174;2022-11-20T14:16:22;4.93;;;4.60;;
3297;SDS011;1661;53.572;10.174;2022-11-20T14:18:49;3.50;;;3.20;;
3297;SDS011;1661;53.572;10.174;2022-11-20T14:21:23;4.50;;;4.20;;
3297;SDS011;1661;53.572;10.174;2022-11-20T14:23:54;4.77;;;4.47;;
3297;SDS011;1661;53.572;10.174;2022-11-20T14:26:30;4.70;;;4.40;;
3297;SDS011;1661;53.572;10.174;2022-11-20T14:28:59;5.03;;;4.53;;
3297;SDS011;1661;53.572;10.174;2022-11-20T14:31:26;4.60;;;4.20;;
3297;SDS011;1661;53.572;10.174;2022-11-20T14:33:54;5.20;;;4.80;;
3297;SDS011;1661;53.572;10.174;2022-11-20T14:36:24;4.60;;;4.20;;
3297;SDS011;1661;53.572;10.174;2022-11-20T14:38:52;4.30;;;3.73;;
3297;SDS011;1661;53.572;10.174;2022-11-20T14:41:20;3.80;;;3.50;;
3297;SDS011;1661;53.572;10.174;2022-11-20T14:43:50;3.40;;;3.10;;
3297;SDS011;1661;53.572;10.174;2022-11-20T14:46:20;5.00;;;4.40;;
3297;SDS011;1661;53.572;10.174;2022-11-20T14:48:49;3.80;;;3.50;;
3297;SDS011;1661;53.572;10.174;2022-11-20T14:51:30;5.37;;;4.97;;
3297;SDS011;1661;53.572;10.174;2022-11-20T14:54:08;3.40;;;3.20;;
3297;SDS011;1661;53.572;10.174;2022-11-20T14:56:36;5.73;;;4.13;;
3297;SDS011;1661;53.572;10.174;2022-11-20T14:59:03;5.30;;;4.70;;
3297;SDS011;1661;53.572;10.174;2022-11-20T15:01:32;5.10;;;4.80;;
3297;SDS011;1661;53.572;10.174;2022-11-20T15:04:00;5.07;;;4.57;;
3297;SDS011;1661;53.572;10.174;2022-11-20T15:06:31;4.27;;;3.87;;
3297;SDS011;1661;53.572;10.174;2022-11-20T15:08:58;5.40;;;4.40;;
3297;SDS011;1661;53.572;10.174;2022-11-20T15:11:27;6.30;;;5.13;;
3297;SDS011;1661;53.572;10.174;2022-11-20T15:14:02;10.70;;;6.20;;
3297;SDS011;1661;53.572;10.174;2022-11-20T15:16:32;4.43;;;4.10;;
3297;SDS011;1661;53.572;10.174;2022-11-20T15:18:59;4.50;;;4.07;;
3297;SDS011;1661;53.572;10.174;2022-11-20T15:21:28;4.37;;;4.07;;
3297;SDS011;1661;53.572;10.174;2022-11-20T15:23:55;6.57;;;5.77;;